Time;durP1;ratioP1;P1;durP2;ratioP2;P2;SDS_P1;SDS_P2;PMS_P1;PMS_P2;Temp;Humidity;BMP_temperature;BMP_pressure;BME280_temperature;BME280_humidity;BME280_pressure;Samples;Min_cycle;Max_cycle;Signal;HPM_P1;HPM_P2
2022/07/23 00:01:12;;;;;;;3.00;2.80;;;19.30;99.90;;;;;;5013208;28;20585;-68
2022/07/23 00:03:37;;;;;;;1.63;1.40;;;19.10;99.90;;;;;;5011871;28;20205;-69
2022/07/23 00:06:03;;;;;;;1.50;1.17;;;19.10;99.90;;;;;;5013233;28;20175;-68
2022/07/23 00:08:29;;;;;;;2.23;1.33;;;19.10;99.90;;;;;;5013185;28;20185;-68
2022/07/23 00:10:55;;;;;;;1.70;1.60;;;19.00;99.90;;;;;;5013123;28;20195;-69
2022/07/23 00:13:20;;;;;;;2.80;1.97;;;19.00;99.90;;;;;;5013302;28;20194;-69
2022/07/23 00:15:46;;;;;;;2.20;2.00;;;18.80;99.90;;;;;;5015881;28;20701;-68
2022/07/23 00:18:11;;;;;;;1.70;1.60;;;18.50;99.90;;;;;;5016701;28;20183;-68
2022/07/23 00:20:37;;;;;;;3.10;2.80;;;18.50;99.90;;;;;;5016855;28;20227;-68
2022/07/23 00:23:03;;;;;;;1.70;1.60;;;18.60;99.90;;;;;;5016749;28;20290;-68
2022/07/23 00:25:29;;;;;;;1.90;1.80;;;18.60;99.90;;;;;;5016630;28;20191;-68
2022/07/23 00:27:54;;;;;;;1.73;1.50;;;18.60;99.90;;;;;;5016708;28;20411;-68
2022/07/23 00:30:20;;;;;;;1.43;1.33;;;18.60;99.90;;;;;;5016717;28;20560;-69
2022/07/23 00:32:56;;;;;;;1.70;1.60;;;18.70;99.90;;;;;;5016552;28;20187;-68
2022/07/23 00:35:23;;;;;;;1.47;1.37;;;18.70;99.90;;;;;;5016831;28;20179;-68
2022/07/23 00:37:49;;;;;;;2.97;2.40;;;18.70;99.90;;;;;;5016728;28;20415;-69
2022/07/23 00:40:15;;;;;;;1.90;1.20;;;18.70;99.90;;;;;;5016331;28;20439;-68
2022/07/23 00:42:41;;;;;;;2.50;2.33;;;18.70;99.90;;;;;;5015133;28;20210;-68
2022/07/23 00:45:07;;;;;;;1.27;1.17;;;18.70;99.90;;;;;;5016512;28;20406;-68
2022/07/23 00:47:33;;;;;;;1.80;1.70;;;18.60;99.90;;;;;;5016057;28;20574;-68
2022/07/23 00:49:59;;;;;;;1.93;1.83;;;18.60;99.90;;;;;;5016404;28;20438;-69
2022/07/23 00:52:26;;;;;;;1.50;1.40;;;18.50;99.90;;;;;;5015037;28;20545;-68
2022/07/23 00:54:52;;;;;;;1.37;1.27;;;18.40;99.90;;;;;;5016212;28;20180;-68
2022/07/23 00:57:17;;;;;;;1.20;1.10;;;18.30;99.90;;;;;;5016254;28;20418;-68
2022/07/23 00:59:43;;;;;;;0.90;0.90;;;18.30;99.90;;;;;;5016166;28;20434;-68
2022/07/23 01:02:09;;;;;;;2.87;2.07;;;18.30;99.90;;;;;;5016003;28;20176;-69
2022/07/23 01:04:34;;;;;;;1.33;1.17;;;18.30;99.90;;;;;;5016162;28;20199;-68
2022/07/23 01:07:01;;;;;;;1.57;1.47;;;18.40;99.90;;;;;;5014570;28;20179;-69
2022/07/23 01:09:27;;;;;;;1.10;1.00;;;18.40;99.90;;;;;;5016070;28;20698;-67
2022/07/23 01:11:54;;;;;;;1.57;1.10;;;18.40;99.90;;;;;;5015830;28;20433;-68
2022/07/23 01:14:20;;;;;;;1.30;1.20;;;18.30;99.90;;;;;;5016005;28;20421;-68
2022/07/23 01:16:48;;;;;;;1.00;1.00;;;18.40;99.90;;;;;;5015682;28;20493;-69
2022/07/23 01:19:15;;;;;;;1.80;1.43;;;18.40;99.90;;;;;;5015520;28;20442;-68
2022/07/23 01:21:46;;;;;;;1.60;1.50;;;18.40;99.90;;;;;;5015730;28;20831;-69
2022/07/23 01:24:12;;;;;;;1.93;1.83;;;18.40;99.90;;;;;;5015509;28;20493;-68
2022/07/23 01:26:41;;;;;;;2.30;2.20;;;18.40;99.90;;;;;;5015560;28;20402;-71
2022/07/23 01:29:07;;;;;;;1.60;1.50;;;18.30;99.90;;;;;;5015599;28;20402;-70
2022/07/23 01:31:32;;;;;;;1.03;1.03;;;18.30;99.90;;;;;;5015549;28;20411;-71
2022/07/23 01:33:58;;;;;;;1.33;1.33;;;18.20;99.90;;;;;;5015890;28;20257;-70
2022/07/23 01:36:24;;;;;;;1.27;1.27;;;18.30;99.90;;;;;;5015521;28;20180;-71
2022/07/23 01:38:50;;;;;;;1.67;1.57;;;18.30;99.90;;;;;;5015430;28;20262;-71
2022/07/23 01:41:16;;;;;;;2.43;2.33;;;18.40;99.90;;;;;;5015314;28;20199;-71
2022/07/23 01:43:41;;;;;;;1.47;1.47;;;18.40;99.90;;;;;;5015350;28;20473;-71
2022/07/23 01:46:07;;;;;;;1.97;1.83;;;18.50;99.90;;;;;;5015311;28;20536;-71
2022/07/23 01:48:33;;;;;;;1.30;1.20;;;18.40;99.90;;;;;;5015213;28;20176;-70
2022/07/23 01:50:58;;;;;;;1.07;0.93;;;18.50;99.90;;;;;;5015281;28;20541;-70
2022/07/23 01:53:24;;;;;;;1.73;1.63;;;18.50;99.90;;;;;;5015228;28;20629;-70
2022/07/23 01:55:50;;;;;;;1.73;1.40;;;18.40;99.90;;;;;;5015198;28;20590;-70
2022/07/23 01:58:15;;;;;;;1.47;1.37;;;18.50;99.90;;;;;;5014849;28;20239;-71
2022/07/23 02:00:41;;;;;;;1.20;1.10;;;18.50;99.90;;;;;;5013672;28;20204;-71
2022/07/23 02:03:07;;;;;;;1.43;1.30;;;18.50;99.90;;;;;;5015301;28;20672;-70
2022/07/23 02:05:32;;;;;;;2.30;1.50;;;18.60;99.90;;;;;;5015097;28;20232;-67
2022/07/23 02:07:59;;;;;;;3.43;2.13;;;18.60;99.90;;;;;;5014797;28;20172;-68
2022/07/23 02:10:25;;;;;;;2.20;1.97;;;18.60;99.90;;;;;;5014662;28;20214;-67
2022/07/23 02:12:51;;;;;;;0.73;0.73;;;18.60;99.90;;;;;;5014705;28;20418;-68
2022/07/23 02:15:17;;;;;;;0.90;0.90;;;18.50;99.90;;;;;;5014637;28;20418;-68
2022/07/23 02:17:43;;;;;;;1.03;1.03;;;18.50;99.90;;;;;;5014692;28;20179;-68
2022/07/23 02:20:09;;;;;;;1.37;1.27;;;18.40;99.90;;;;;;5014542;28;20435;-68
2022/07/23 02:22:35;;;;;;;1.67;1.47;;;18.40;99.90;;;;;;5014713;28;20176;-68
2022/07/23 02:25:02;;;;;;;1.40;1.30;;;18.40;99.90;;;;;;5014370;28;20517;-68
2022/07/23 02:27:28;;;;;;;2.17;2.07;;;18.50;99.90;;;;;;5014251;28;20414;-68
2022/07/23 02:29:54;;;;;;;0.93;0.80;;;18.40;99.90;;;;;;5013042;28;20441;-68
2022/07/23 02:32:21;;;;;;;1.17;1.07;;;18.40;99.90;;;;;;5014410;28;20183;-67
2022/07/23 02:34:47;;;;;;;1.40;1.30;;;18.50;99.90;;;;;;5014717;28;20457;-68
2022/07/23 02:37:13;;;;;;;1.97;1.63;;;18.50;99.90;;;;;;5013647;28;20437;-69
2022/07/23 02:39:39;;;;;;;1.37;1.27;;;18.60;99.90;;;;;;5014336;28;20434;-68
2022/07/23 02:42:05;;;;;;;1.30;1.23;;;18.50;99.90;;;;;;5014148;28;20414;-67
2022/07/23 02:44:30;;;;;;;1.67;1.60;;;18.50;99.90;;;;;;5014280;28;20691;-68
2022/07/23 02:46:56;;;;;;;2.40;2.20;;;18.50;99.90;;;;;;5014224;28;20176;-68
2022/07/23 02:49:21;;;;;;;2.23;1.20;;;18.40;99.90;;;;;;5014085;28;20191;-69
2022/07/23 02:51:47;;;;;;;2.00;1.90;;;18.50;99.90;;;;;;5014222;28;20176;-68
2022/07/23 02:54:13;;;;;;;1.57;1.47;;;18.50;99.90;;;;;;5014210;28;20183;-68
2022/07/23 02:56:38;;;;;;;1.90;1.80;;;18.50;99.90;;;;;;5014182;28;20313;-68
2022/07/23 02:59:04;;;;;;;1.50;1.37;;;18.60;99.90;;;;;;5013744;28;20172;-68
2022/07/23 03:01:30;;;;;;;2.97;1.67;;;18.50;99.90;;;;;;5014368;28;20213;-69
2022/07/23 03:03:55;;;;;;;2.37;2.03;;;18.50;99.90;;;;;;5013881;28;20668;-68
2022/07/23 03:06:21;;;;;;;1.73;1.63;;;18.40;99.90;;;;;;5013877;28;20182;-68
2022/07/23 03:08:47;;;;;;;1.90;1.73;;;18.40;99.90;;;;;;5013833;28;20171;-68
2022/07/23 03:11:13;;;;;;;3.60;2.30;;;18.40;99.90;;;;;;5013913;28;20270;-68
2022/07/23 03:13:39;;;;;;;1.67;1.57;;;18.30;99.90;;;;;;5012551;28;20513;-68
2022/07/23 03:16:06;;;;;;;2.07;1.90;;;18.30;99.90;;;;;;5012965;28;20644;-68
2022/07/23 03:18:32;;;;;;;2.23;1.90;;;18.40;99.90;;;;;;5013726;28;20449;-68
2022/07/23 03:20:58;;;;;;;2.13;2.03;;;18.20;99.90;;;;;;5013729;28;20438;-68
2022/07/23 03:23:23;;;;;;;1.80;1.70;;;18.20;99.90;;;;;;5013826;28;20549;-68
2022/07/23 03:25:49;;;;;;;2.53;2.10;;;18.10;99.90;;;;;;5013700;28;20194;-67
2022/07/23 03:28:16;;;;;;;1.10;1.10;;;18.00;99.90;;;;;;5013487;28;20176;-69
2022/07/23 03:30:46;;;;;;;2.07;1.57;;;17.90;99.90;;;;;;5013527;28;20195;-68
2022/07/23 03:33:13;;;;;;;1.77;1.67;;;17.90;99.90;;;;;;5013780;28;20622;-68
2022/07/23 03:35:39;;;;;;;1.33;1.20;;;17.90;99.90;;;;;;5013711;28;20473;-68
2022/07/23 03:38:04;;;;;;;2.40;2.20;;;18.00;99.90;;;;;;5013485;28;20903;-69
2022/07/23 03:40:30;;;;;;;1.80;1.70;;;18.00;99.90;;;;;;5013448;28;20686;-70
2022/07/23 03:42:55;;;;;;;2.40;1.57;;;17.90;99.90;;;;;;5013683;28;20195;-70
2022/07/23 03:45:21;;;;;;;1.97;1.50;;;17.80;99.90;;;;;;5013828;28;20258;-70
2022/07/23 03:47:47;;;;;;;1.17;1.00;;;17.80;99.90;;;;;;5013476;28;20176;-70
2022/07/23 03:50:12;;;;;;;1.13;0.63;;;17.80;99.90;;;;;;5015380;28;20660;-70
2022/07/23 03:52:38;;;;;;;1.70;1.60;;;17.90;99.90;;;;;;5017399;28;20179;-70
2022/07/23 03:55:04;;;;;;;2.17;2.07;;;18.00;99.90;;;;;;5017496;28;20175;-71
2022/07/23 03:57:30;;;;;;;0.73;0.70;;;18.00;99.90;;;;;;5017137;28;20171;-69
2022/07/23 03:59:56;;;;;;;1.27;1.23;;;18.10;99.90;;;;;;5017495;28;20510;-67
2022/07/23 04:02:22;;;;;;;1.70;1.50;;;18.40;99.90;;;;;;5016560;28;20172;-69
2022/07/23 04:04:47;;;;;;;2.53;2.20;;;18.80;99.90;;;;;;5017282;28;20546;-69
2022/07/23 04:07:14;;;;;;;1.57;1.03;;;19.10;99.90;;;;;;5016966;28;20176;-66
2022/07/23 04:09:40;;;;;;;1.73;1.27;;;19.30;99.90;;;;;;5014659;28;20769;-68
2022/07/23 04:12:07;;;;;;;1.03;1.03;;;19.40;99.90;;;;;;5017072;28;20410;-67
2022/07/23 04:14:33;;;;;;;1.73;1.63;;;19.50;99.90;;;;;;5017074;28;20959;-67
2022/07/23 04:16:59;;;;;;;1.33;1.23;;;19.50;99.90;;;;;;5016917;28;20411;-67
2022/07/23 04:19:25;;;;;;;1.60;1.50;;;19.60;99.90;;;;;;5016902;28;20439;-67
2022/07/23 04:21:51;;;;;;;0.90;0.90;;;19.70;99.90;;;;;;5016144;28;20443;-66
2022/07/23 04:24:17;;;;;;;1.70;1.20;;;19.90;99.90;;;;;;5016063;28;20528;-68
2022/07/23 04:26:44;;;;;;;1.50;1.40;;;20.10;99.90;;;;;;5016936;28;20544;-68
2022/07/23 04:29:10;;;;;;;2.77;2.57;;;20.40;99.90;;;;;;5016787;28;20407;-67
2022/07/23 04:31:35;;;;;;;1.10;1.07;;;20.60;99.90;;;;;;5017234;28;20497;-66
2022/07/23 04:34:01;;;;;;;0.90;0.90;;;20.80;99.90;;;;;;5016862;28;20496;-66
2022/07/23 04:36:27;;;;;;;0.83;0.80;;;20.70;99.90;;;;;;5016825;28;20185;-66
2022/07/23 04:38:53;;;;;;;0.93;0.93;;;20.60;99.90;;;;;;5016278;28;20269;-66
2022/07/23 04:41:19;;;;;;;1.73;1.63;;;20.80;99.90;;;;;;5016659;28;20249;-67
2022/07/23 04:43:45;;;;;;;2.00;1.80;;;20.90;99.90;;;;;;5016661;28;20449;-71
2022/07/23 04:46:10;;;;;;;1.30;1.20;;;21.00;99.90;;;;;;5017092;28;20183;-71
2022/07/23 04:48:36;;;;;;;2.00;1.73;;;20.90;99.90;;;;;;5014900;28;20175;-70
2022/07/23 04:51:02;;;;;;;1.50;1.27;;;20.60;99.90;;;;;;5016935;28;20589;-70
2022/07/23 04:53:27;;;;;;;1.10;1.00;;;20.30;99.90;;;;;;5016919;28;20598;-71
2022/07/23 04:55:53;;;;;;;1.23;1.13;;;19.90;99.90;;;;;;5016417;28;20180;-70
2022/07/23 04:58:19;;;;;;;1.30;1.20;;;19.70;99.90;;;;;;5016218;28;20177;-70
2022/07/23 05:00:44;;;;;;;0.83;0.83;;;19.60;99.90;;;;;;5015921;28;20199;-70
2022/07/23 05:03:10;;;;;;;1.20;1.20;;;19.50;99.90;;;;;;5016513;28;20199;-70
2022/07/23 05:05:36;;;;;;;1.43;1.33;;;19.70;99.90;;;;;;5016653;28;20176;-70
2022/07/23 05:08:01;;;;;;;2.00;1.17;;;19.80;99.90;;;;;;5015956;28;20520;-69
2022/07/23 05:10:27;;;;;;;1.40;1.10;;;20.00;99.90;;;;;;5016039;28;20650;-69
2022/07/23 05:12:53;;;;;;;1.13;1.07;;;20.30;99.90;;;;;;5016153;28;20182;-70
2022/07/23 05:15:18;;;;;;;1.50;1.40;;;20.70;99.90;;;;;;5015022;28;20183;-70
2022/07/23 05:17:44;;;;;;;1.20;1.10;;;21.00;99.90;;;;;;5015539;28;20192;-70
2022/07/23 05:20:10;;;;;;;1.50;1.30;;;21.50;99.90;;;;;;5013093;28;20668;-71
2022/07/23 05:22:35;;;;;;;1.30;1.20;;;21.80;99.90;;;;;;5015308;28;20191;-70
2022/07/23 05:25:01;;;;;;;1.33;1.17;;;22.00;99.90;;;;;;5014971;28;20430;-70
2022/07/23 05:27:27;;;;;;;1.40;1.30;;;22.00;99.90;;;;;;5013880;28;20184;-70
2022/07/23 05:29:52;;;;;;;1.43;1.43;;;21.90;99.90;;;;;;5014322;28;20192;-70
2022/07/23 05:32:18;;;;;;;1.03;1.03;;;22.00;99.90;;;;;;5014267;28;20534;-70
2022/07/23 05:34:44;;;;;;;1.30;1.20;;;22.10;99.90;;;;;;5013697;28;20172;-71
2022/07/23 05:37:09;;;;;;;0.70;0.70;;;22.20;99.90;;;;;;5014418;28;20178;-70
2022/07/23 05:39:35;;;;;;;0.73;0.73;;;22.20;99.90;;;;;;5013046;28;20678;-70
2022/07/23 05:42:01;;;;;;;1.37;1.27;;;22.20;99.90;;;;;;5015101;28;20190;-70
2022/07/23 05:44:27;;;;;;;2.23;2.00;;;22.30;99.90;;;;;;5014223;28;20249;-70
2022/07/23 05:46:53;;;;;;;1.17;1.10;;;22.40;99.90;;;;;;5013552;28;20256;-71
2022/07/23 05:49:18;;;;;;;1.57;1.10;;;22.50;99.90;;;;;;5015030;28;20905;-70
2022/07/23 05:51:45;;;;;;;1.17;1.17;;;22.70;99.90;;;;;;5015139;28;20662;-71
2022/07/23 05:54:10;;;;;;;1.90;1.73;;;22.70;99.90;;;;;;5015203;28;20175;-71
2022/07/23 05:56:36;;;;;;;1.47;1.37;;;22.90;99.90;;;;;;5015190;28;20422;-71
2022/07/23 05:59:02;;;;;;;1.50;1.47;;;23.00;99.90;;;;;;5014931;28;20174;-70
2022/07/23 06:01:28;;;;;;;1.57;1.30;;;22.90;99.90;;;;;;5015039;28;20178;-70
2022/07/23 06:03:53;;;;;;;1.70;1.23;;;22.70;99.90;;;;;;5015098;28;20206;-70
2022/07/23 06:06:19;;;;;;;1.43;1.33;;;22.80;99.90;;;;;;5015095;28;20178;-70
2022/07/23 06:08:44;;;;;;;2.10;1.10;;;23.00;99.90;;;;;;5014741;28;20198;-70
2022/07/23 06:11:10;;;;;;;1.60;1.10;;;23.20;99.90;;;;;;5014778;28;20260;-71
2022/07/23 06:13:36;;;;;;;1.30;1.23;;;23.10;99.90;;;;;;5014006;28;20187;-70
2022/07/23 06:16:02;;;;;;;1.10;1.00;;;22.90;99.90;;;;;;5014979;28;20457;-71
2022/07/23 06:18:27;;;;;;;1.53;1.40;;;22.70;99.90;;;;;;5014541;28;20253;-71
2022/07/23 06:20:54;;;;;;;1.03;0.87;;;22.70;99.90;;;;;;5014785;28;20229;-70
2022/07/23 06:23:19;;;;;;;1.20;1.10;;;22.50;99.90;;;;;;5014628;28;20595;-70
2022/07/23 06:25:45;;;;;;;1.20;1.20;;;22.40;99.90;;;;;;5014565;28;20403;-70
2022/07/23 06:28:11;;;;;;;1.83;1.73;;;22.30;99.90;;;;;;5014485;28;20182;-70
2022/07/23 06:30:36;;;;;;;0.90;0.90;;;22.30;99.90;;;;;;5014535;28;20649;-70
2022/07/23 06:33:02;;;;;;;1.80;1.67;;;22.20;99.90;;;;;;5014464;28;20178;-71
2022/07/23 06:35:28;;;;;;;1.23;1.13;;;22.00;99.90;;;;;;5014561;28;20176;-70
2022/07/23 06:37:54;;;;;;;1.07;1.07;;;21.70;99.90;;;;;;5014389;28;20177;-71
2022/07/23 06:40:20;;;;;;;2.53;1.30;;;21.70;99.90;;;;;;5014214;28;20434;-70
2022/07/23 06:42:46;;;;;;;1.43;1.33;;;21.60;99.90;;;;;;5014583;28;20617;-71
2022/07/23 06:45:12;;;;;;;1.27;1.17;;;21.60;99.90;;;;;;5014605;28;20407;-70
2022/07/23 06:47:38;;;;;;;1.37;1.10;;;21.60;99.90;;;;;;5012950;28;20411;-70
2022/07/23 06:50:04;;;;;;;1.73;1.63;;;21.60;99.90;;;;;;5014318;28;20770;-70
2022/07/23 06:52:30;;;;;;;1.83;1.73;;;21.70;99.90;;;;;;5014612;28;20835;-70
2022/07/23 06:54:55;;;;;;;1.63;1.53;;;22.10;99.90;;;;;;5014318;28;20508;-70
2022/07/23 06:57:21;;;;;;;2.03;1.83;;;22.70;99.90;;;;;;5014095;28;20640;-70
2022/07/23 06:59:47;;;;;;;1.53;1.43;;;23.20;99.90;;;;;;5014087;28;20618;-70
2022/07/23 07:02:12;;;;;;;1.43;1.33;;;23.70;99.90;;;;;;5014038;28;20182;-70
2022/07/23 07:04:38;;;;;;;1.13;1.13;;;23.90;99.90;;;;;;5014077;28;20199;-71
2022/07/23 07:07:04;;;;;;;1.07;0.97;;;24.00;99.90;;;;;;5014192;28;20212;-71
2022/07/23 07:09:29;;;;;;;2.70;1.67;;;23.90;99.90;;;;;;5014261;28;20199;-70
2022/07/23 07:11:56;;;;;;;1.70;1.60;;;23.90;99.90;;;;;;5013929;28;20167;-71
2022/07/23 07:14:22;;;;;;;1.30;1.10;;;23.80;99.90;;;;;;5013981;28;20228;-70
2022/07/23 07:16:47;;;;;;;2.00;1.80;;;23.50;99.90;;;;;;5014019;28;20413;-71
2022/07/23 07:19:13;;;;;;;1.63;1.53;;;23.10;99.90;;;;;;5013387;28;20190;-71
2022/07/23 07:21:38;;;;;;;1.20;1.10;;;22.90;99.90;;;;;;5013912;28;20174;-72
2022/07/23 07:24:05;;;;;;;2.20;2.10;;;22.60;99.90;;;;;;5013431;28;20214;-71
2022/07/23 07:26:30;;;;;;;2.30;1.50;;;22.40;99.90;;;;;;5012890;28;20186;-71
2022/07/23 07:28:56;;;;;;;0.80;0.80;;;22.20;99.90;;;;;;5012416;28;20475;-70
2022/07/23 07:31:22;;;;;;;1.27;1.13;;;22.10;99.90;;;;;;5014355;28;20193;-70
2022/07/23 07:33:48;;;;;;;1.60;1.50;;;22.00;99.90;;;;;;5012682;28;20800;-72
2022/07/23 07:36:13;;;;;;;1.83;1.20;;;21.90;99.90;;;;;;5012195;28;20170;-71
2022/07/23 07:38:39;;;;;;;1.03;0.63;;;22.00;99.90;;;;;;5013912;28;20181;-70
2022/07/23 07:41:05;;;;;;;2.23;2.13;;;22.10;99.90;;;;;;5011969;28;20293;-71
2022/07/23 07:43:30;;;;;;;1.33;1.23;;;22.40;99.90;;;;;;5013465;28;20198;-70
2022/07/23 07:45:56;;;;;;;1.67;1.57;;;22.90;99.90;;;;;;5013452;28;20171;-70
2022/07/23 07:48:22;;;;;;;2.10;2.00;;;24.20;99.90;;;;;;5011862;28;20178;-72
2022/07/23 07:50:47;;;;;;;1.33;1.23;;;25.80;99.90;;;;;;5014063;28;20547;-71
2022/07/23 07:53:13;;;;;;;2.03;1.50;;;26.60;95.00;;;;;;5013862;28;20179;-71
2022/07/23 07:55:39;;;;;;;1.50;1.40;;;27.10;93.70;;;;;;5013769;28;20658;-71
2022/07/23 07:58:05;;;;;;;1.93;1.80;;;27.90;92.70;;;;;;5013384;28;20206;-72
2022/07/23 08:00:30;;;;;;;2.10;1.60;;;28.10;90.90;;;;;;5013487;28;20663;-72
2022/07/23 08:02:56;;;;;;;1.97;1.50;;;28.20;90.70;;;;;;5014053;28;20786;-71
2022/07/23 08:05:26;;;;;;;2.60;2.43;;;27.40;91.60;;;;;;5013503;28;20178;-70
2022/07/23 08:07:52;;;;;;;0.87;0.87;;;26.50;92.40;;;;;;5013713;28;20205;-71
2022/07/23 08:10:18;;;;;;;1.60;1.43;;;25.70;94.20;;;;;;5011642;28;21043;-70
2022/07/23 08:12:49;;;;;;;2.93;2.30;;;25.10;95.60;;;;;;5013450;28;20382;-70
2022/07/23 08:15:16;;;;;;;1.00;1.00;;;24.70;96.00;;;;;;5013962;28;20404;-71
2022/07/23 08:17:44;;;;;;;2.03;1.90;;;24.60;96.70;;;;;;5009813;28;20897;-70
2022/07/23 08:20:11;;;;;;;1.00;1.00;;;24.70;96.10;;;;;;5012144;28;20431;-70
2022/07/23 08:22:51;;;;;;;2.47;2.30;;;24.70;95.80;;;;;;5011684;28;20411;-71
2022/07/23 08:25:24;;;;;;;1.90;1.80;;;24.70;96.30;;;;;;5013527;28;20392;-71
2022/07/23 08:27:50;;;;;;;1.67;1.57;;;24.90;97.40;;;;;;5011816;28;20400;-69
2022/07/23 08:30:19;;;;;;;1.97;1.87;;;25.40;95.50;;;;;;5010016;28;20907;-70
2022/07/23 08:33:00;;;;;;;1.87;1.77;;;26.20;95.10;;;;;;5011889;28;20407;-71
2022/07/23 08:35:31;;;;;;;1.33;1.23;;;26.60;93.20;;;;;;5011788;28;20812;-71
2022/07/23 08:37:58;;;;;;;1.73;1.53;;;26.80;91.60;;;;;;5016542;28;20914;-70
2022/07/23 08:40:27;;;;;;;1.93;1.80;;;26.70;92.60;;;;;;5016770;28;20427;-71
2022/07/23 08:42:53;;;;;;;0.90;0.90;;;26.70;92.70;;;;;;5014815;28;20494;-71
2022/07/23 08:45:22;;;;;;;1.30;1.20;;;26.70;90.80;;;;;;5016703;28;20955;-71
2022/07/23 08:48:02;;;;;;;1.13;1.00;;;26.80;91.50;;;;;;5015456;28;20171;-71
2022/07/23 08:50:27;;;;;;;1.20;1.20;;;26.80;91.50;;;;;;5015397;28;20476;-71
2022/07/23 08:52:53;;;;;;;1.87;1.77;;;26.60;92.00;;;;;;5016280;28;20442;-71
2022/07/23 08:55:21;;;;;;;2.03;1.57;;;26.50;92.40;;;;;;5016625;28;20298;-72
2022/07/23 08:57:49;;;;;;;1.60;1.50;;;26.20;91.40;;;;;;5016687;28;20734;-71
2022/07/23 09:00:16;;;;;;;1.80;1.70;;;26.00;92.40;;;;;;5016227;28;20793;-71
2022/07/23 09:02:44;;;;;;;1.13;1.07;;;25.60;94.70;;;;;;5016847;28;20413;-71
2022/07/23 09:05:11;;;;;;;2.10;1.90;;;25.40;95.10;;;;;;5015011;28;20411;-72
2022/07/23 09:07:37;;;;;;;1.47;1.37;;;25.30;93.80;;;;;;5015801;28;20410;-71
2022/07/23 09:10:10;;;;;;;2.33;1.97;;;25.20;94.60;;;;;;5016318;28;20441;-71
2022/07/23 09:12:37;;;;;;;1.70;1.50;;;25.10;95.80;;;;;;5016479;28;20493;-71
2022/07/23 09:15:08;;;;;;;2.00;1.90;;;25.00;94.90;;;;;;5016051;28;20886;-71
2022/07/23 09:17:38;;;;;;;1.37;1.27;;;25.40;95.80;;;;;;5016183;28;20393;-72
2022/07/23 09:20:16;;;;;;;2.60;2.17;;;26.00;96.30;;;;;;5016467;28;20945;-70
2022/07/23 09:22:46;;;;;;;2.53;2.33;;;26.80;94.90;;;;;;5015865;28;20916;-69
2022/07/23 09:25:16;;;;;;;1.73;1.63;;;28.10;92.20;;;;;;5015978;28;20423;-70
2022/07/23 09:27:48;;;;;;;2.50;1.87;;;29.40;90.60;;;;;;5015885;28;20411;-69
2022/07/23 09:30:14;;;;;;;1.47;1.30;;;29.80;88.50;;;;;;5014984;28;20438;-70
2022/07/23 09:32:40;;;;;;;3.00;2.47;;;29.40;84.80;;;;;;5015623;28;20414;-69
2022/07/23 09:35:06;;;;;;;1.53;1.43;;;29.00;87.00;;;;;;5015851;28;20528;-69
2022/07/23 09:37:32;;;;;;;2.37;2.17;;;29.20;85.90;;;;;;5015787;28;20410;-69
2022/07/23 09:40:06;;;;;;;2.33;2.23;;;29.20;86.00;;;;;;5015474;28;20466;-70
2022/07/23 09:42:32;;;;;;;2.73;2.53;;;29.40;86.80;;;;;;5015914;28;20206;-69
2022/07/23 09:44:59;;;;;;;2.00;1.90;;;29.60;83.00;;;;;;5015943;28;20573;-69
2022/07/23 09:47:28;;;;;;;2.07;1.87;;;29.20;85.50;;;;;;5015208;28;20671;-69
2022/07/23 09:50:08;;;;;;;1.57;1.47;;;28.80;82.90;;;;;;5015114;28;20462;-69
2022/07/23 09:52:36;;;;;;;2.07;1.97;;;28.50;86.10;;;;;;5014404;28;20410;-69
2022/07/23 09:55:06;;;;;;;2.50;2.10;;;28.10;86.90;;;;;;5015733;28;20872;-69
2022/07/23 09:57:33;;;;;;;1.20;1.10;;;28.50;88.30;;;;;;5015376;28;20494;-69
2022/07/23 10:00:05;;;;;;;1.80;1.43;;;28.80;83.70;;;;;;5013703;28;20461;-69
2022/07/23 10:02:33;;;;;;;1.90;1.77;;;29.10;87.50;;;;;;5012355;28;20762;-69
2022/07/23 10:05:00;;;;;;;2.60;2.40;;;29.30;83.00;;;;;;5013382;28;21030;-69
2022/07/23 10:07:29;;;;;;;1.50;1.40;;;29.10;82.20;;;;;;5013761;28;20414;-69
2022/07/23 10:09:56;;;;;;;2.23;2.07;;;28.80;83.20;;;;;;5014737;28;20434;-70
2022/07/23 10:14:56;;;;;;;2.60;1.77;;;28.40;83.90;;;;;;5015048;28;20428;-69
2022/07/23 10:17:21;;;;;;;1.80;1.70;;;28.50;84.10;;;;;;5013364;28;20422;-69
2022/07/23 10:19:47;;;;;;;2.47;2.37;;;28.40;82.90;;;;;;5013558;28;20439;-70
2022/07/23 10:22:39;;;;;;;1.90;1.80;;;28.20;85.00;;;;;;5014872;28;20179;-70
2022/07/23 10:25:35;;;;;;;2.30;2.00;;;28.00;87.40;;;;;;5014535;28;20250;-69
2022/07/23 10:28:31;;;;;;;1.70;1.60;;;27.80;86.70;;;;;;5014561;28;20915;-69
2022/07/23 10:31:25;;;;;;;1.80;1.70;;;27.60;87.10;;;;;;5014680;28;20422;-69
2022/07/23 10:33:59;;;;;;;1.73;1.63;;;28.00;89.10;;;;;;5014700;28;20402;-69
2022/07/23 10:36:49;;;;;;;2.13;1.80;;;28.40;87.90;;;;;;5014527;28;20453;-69
2022/07/23 10:39:34;;;;;;;1.43;1.33;;;28.50;85.30;;;;;;5014301;28;20478;-69
2022/07/23 10:42:12;;;;;;;1.87;1.20;;;28.50;84.40;;;;;;5014583;28;20934;-69
2022/07/23 10:44:48;;;;;;;2.20;2.00;;;27.90;84.60;;;;;;5013077;28;20978;-69
2022/07/23 10:47:42;;;;;;;1.93;1.70;;;27.50;86.80;;;;;;5013816;28;20438;-70
2022/07/23 10:50:30;;;;;;;2.57;2.30;;;27.50;88.40;;;;;;5014179;28;20435;-69
2022/07/23 10:53:15;;;;;;;1.60;1.40;;;27.90;86.20;;;;;;5014505;28;20489;-69
2022/07/23 10:55:44;;;;;;;1.43;1.33;;;27.60;86.10;;;;;;5013988;28;20822;-69
2022/07/23 10:58:10;;;;;;;1.70;1.60;;;27.40;87.40;;;;;;5013460;28;20377;-69
2022/07/23 11:00:37;;;;;;;1.37;1.30;;;27.70;87.50;;;;;;5014247;28;20465;-70
2022/07/23 11:03:25;;;;;;;1.90;1.80;;;27.90;86.60;;;;;;5014178;28;20552;-69
2022/07/23 11:05:50;;;;;;;2.00;1.87;;;28.10;87.20;;;;;;5014074;28;20418;-69
2022/07/23 11:08:20;;;;;;;1.60;1.50;;;28.00;86.90;;;;;;5013750;28;20416;-70
2022/07/23 11:10:50;;;;;;;2.13;1.93;;;27.90;87.10;;;;;;5013861;28;20242;-69
2022/07/23 11:13:22;;;;;;;2.20;2.00;;;28.00;86.40;;;;;;5013958;28;20831;-69
2022/07/23 11:16:08;;;;;;;2.40;2.20;;;27.80;86.80;;;;;;5013941;28;20438;-70
2022/07/23 11:18:39;;;;;;;1.90;1.80;;;27.70;88.40;;;;;;5013597;28;20415;-70
2022/07/23 11:21:23;;;;;;;1.80;1.70;;;27.70;90.00;;;;;;5013586;28;20916;-70
2022/07/23 11:24:06;;;;;;;1.67;1.57;;;27.90;90.80;;;;;;5013499;28;20462;-69
2022/07/23 11:26:41;;;;;;;1.67;1.57;;;28.00;88.00;;;;;;5013729;28;20767;-69
2022/07/23 11:29:28;;;;;;;2.23;1.90;;;28.40;87.60;;;;;;5013474;28;20773;-69
2022/07/23 11:31:55;;;;;;;2.50;2.30;;;28.70;85.80;;;;;;5012421;28;20442;-70
2022/07/23 11:34:39;;;;;;;2.10;1.67;;;28.90;87.30;;;;;;5013796;28;20418;-70
2022/07/23 11:37:07;;;;;;;2.00;1.90;;;28.90;85.70;;;;;;5013679;28;20765;-70
2022/07/23 11:39:34;;;;;;;2.20;2.00;;;28.70;86.60;;;;;;5013674;28;20525;-68
2022/07/23 11:42:01;;;;;;;1.83;1.73;;;28.80;83.00;;;;;;5013767;28;20422;-68
2022/07/23 11:44:28;;;;;;;2.20;1.97;;;29.20;84.50;;;;;;5013270;28;20450;-68
2022/07/23 11:46:58;;;;;;;1.93;1.83;;;29.10;80.50;;;;;;5011730;28;20995;-68
2022/07/23 11:49:24;;;;;;;1.77;1.67;;;28.50;83.70;;;;;;5013526;28;20444;-68
2022/07/23 11:52:10;;;;;;;1.93;1.83;;;28.40;84.60;;;;;;5012952;28;20461;-68
2022/07/23 11:54:50;;;;;;;2.97;2.77;;;28.40;85.30;;;;;;5011831;28;20410;-68
2022/07/23 11:57:19;;;;;;;2.93;2.63;;;28.30;86.20;;;;;;5013359;28;20421;-69
2022/07/23 11:59:47;;;;;;;2.20;2.00;;;28.30;85.80;;;;;;5011973;28;20430;-69
2022/07/23 12:02:13;;;;;;;1.37;1.30;;;28.30;90.50;;;;;;5013415;28;20410;-68
2022/07/23 12:04:45;;;;;;;2.43;2.00;;;28.30;87.30;;;;;;5013434;28;20450;-68
2022/07/23 12:07:40;;;;;;;3.30;2.60;;;28.50;85.10;;;;;;5013267;28;20259;-68
2022/07/23 12:10:30;;;;;;;1.60;1.50;;;28.80;85.10;;;;;;5013469;28;20458;-68
2022/07/23 12:12:58;;;;;;;1.03;1.03;;;28.80;85.60;;;;;;5006023;28;20484;-68
2022/07/23 12:15:28;;;;;;;2.33;1.77;;;28.80;80.30;;;;;;5017145;28;20403;-68
2022/07/23 12:17:55;;;;;;;2.60;1.70;;;28.70;82.90;;;;;;5016999;28;20446;-68
2022/07/23 12:20:25;;;;;;;2.10;1.97;;;28.70;81.90;;;;;;5016764;28;20429;-68
2022/07/23 12:22:56;;;;;;;1.87;1.77;;;28.60;80.40;;;;;;5016771;28;20410;-68
2022/07/23 12:25:25;;;;;;;2.07;1.97;;;28.70;82.80;;;;;;5016770;28;20449;-68
2022/07/23 12:28:15;;;;;;;2.33;2.23;;;28.50;81.50;;;;;;5016609;28;20409;-68
2022/07/23 12:30:47;;;;;;;1.47;1.37;;;28.60;80.30;;;;;;5016724;28;20801;-68
2022/07/23 12:33:29;;;;;;;2.10;1.67;;;28.80;82.10;;;;;;5016949;28;20414;-68
2022/07/23 12:35:57;;;;;;;3.47;2.50;;;29.00;82.30;;;;;;5016874;28;20402;-68
2022/07/23 12:38:25;;;;;;;1.20;1.10;;;29.20;77.70;;;;;;5016512;28;20425;-68
2022/07/23 12:41:01;;;;;;;2.50;2.30;;;29.20;76.80;;;;;;5016806;28;20430;-68
2022/07/23 12:43:28;;;;;;;1.60;1.50;;;29.50;78.20;;;;;;5016853;28;20454;-69
2022/07/23 12:46:09;;;;;;;1.83;1.67;;;29.50;76.60;;;;;;5016772;28;20402;-69
2022/07/23 12:48:49;;;;;;;2.00;1.80;;;29.60;79.10;;;;;;5015042;28;20907;-68
2022/07/23 12:51:19;;;;;;;2.40;2.30;;;29.30;79.70;;;;;;5016343;28;20472;-68
2022/07/23 12:53:48;;;;;;;2.50;1.40;;;29.10;77.90;;;;;;5016272;28;20899;-68
2022/07/23 12:56:21;;;;;;;2.17;2.07;;;28.90;76.70;;;;;;5016286;28;20785;-68